createdAt,value
2023-01-31T00:00:27.734Z,3.50
2023-01-31T00:01:09.731Z,3.50
2023-01-31T00:01:42.633Z,3.50
2023-01-31T00:02:14.541Z,3.50
2023-01-31T00:02:46.513Z,3.40
2023-01-31T00:03:19.456Z,3.40
2023-01-31T00:03:54.118Z,3.40
2023-01-31T00:04:27.005Z,3.40
2023-01-31T00:04:58.851Z,3.40
2023-01-31T00:05:30.663Z,3.40
2023-01-31T00:06:14.623Z,3.40
2023-01-31T00:06:51.034Z,3.40
2023-01-31T00:07:23.069Z,3.40
2023-01-31T00:07:55.433Z,3.40
2023-01-31T00:08:27.238Z,3.40
2023-01-31T00:09:01.476Z,3.40
2023-01-31T00:09:35.114Z,3.40
2023-01-31T00:10:07.659Z,3.40
2023-01-31T00:10:40.789Z,3.50
2023-01-31T00:11:13.349Z,3.40
2023-01-31T00:11:45.299Z,3.40
2023-01-31T00:12:18.096Z,3.40
2023-01-31T00:12:49.943Z,3.40
2023-01-31T00:13:21.755Z,3.40
2023-01-31T00:13:55.445Z,3.40
2023-01-31T00:14:27.291Z,3.20
2023-01-31T00:15:00.082Z,3.40
2023-01-31T00:15:33.092Z,3.40
2023-01-31T00:16:05.775Z,3.40
2023-01-31T00:16:37.765Z,3.40
2023-01-31T00:17:10.887Z,3.40
2023-01-31T00:17:42.940Z,3.40
2023-01-31T00:18:14.716Z,3.40
2023-01-31T00:18:47.894Z,3.40
2023-01-31T00:19:19.841Z,3.40
2023-01-31T00:19:51.667Z,3.40
2023-01-31T00:20:23.439Z,3.40
2023-01-31T00:20:56.371Z,3.40
2023-01-31T00:21:30.341Z,3.40
2023-01-31T00:22:02.164Z,3.40
2023-01-31T00:22:35.006Z,3.40
2023-01-31T00:23:06.886Z,3.40
2023-01-31T00:23:39.475Z,3.40
2023-01-31T00:24:13.793Z,3.40
2023-01-31T00:24:47.029Z,3.50
2023-01-31T00:25:19.288Z,3.50
2023-01-31T00:25:52.177Z,3.40
2023-01-31T00:26:26.117Z,3.50
2023-01-31T00:26:58.021Z,3.50
2023-01-31T00:27:30.839Z,3.50
2023-01-31T00:28:02.717Z,3.50
2023-01-31T00:28:34.789Z,3.40
2023-01-31T00:29:07.751Z,3.40
2023-01-31T00:29:39.563Z,3.40
2023-01-31T00:30:12.212Z,3.40
2023-01-31T00:30:44.983Z,3.40
2023-01-31T00:31:18.035Z,3.40
2023-01-31T00:31:50.864Z,3.40
2023-01-31T00:32:26.559Z,3.50
2023-01-31T00:32:58.456Z,3.40
2023-01-31T00:33:30.268Z,3.50
2023-01-31T00:34:03.640Z,3.40
2023-01-31T00:34:35.476Z,3.40
2023-01-31T00:35:08.481Z,3.40
2023-01-31T00:35:41.932Z,3.40
2023-01-31T00:36:16.842Z,3.40
2023-01-31T00:36:48.607Z,3.40
2023-01-31T00:37:21.919Z,3.40
2023-01-31T00:37:53.820Z,3.40
2023-01-31T00:38:25.577Z,3.30
2023-01-31T00:38:59.948Z,3.40
2023-01-31T00:39:31.725Z,3.40
2023-01-31T00:40:05.908Z,3.30
2023-01-31T00:40:38.878Z,3.40
2023-01-31T00:41:11.054Z,3.30
2023-01-31T00:41:42.880Z,3.40
2023-01-31T00:42:15.673Z,3.40
2023-01-31T00:42:47.484Z,3.40
2023-01-31T00:43:19.286Z,3.40
2023-01-31T00:43:52.903Z,3.40
2023-01-31T00:44:24.724Z,3.40
2023-01-31T00:44:56.494Z,3.40
2023-01-31T00:45:29.296Z,3.40
2023-01-31T00:46:01.635Z,3.40
2023-01-31T00:46:33.689Z,3.40
2023-01-31T00:47:07.178Z,3.40
2023-01-31T00:47:39.201Z,3.40
2023-01-31T00:48:11.043Z,3.50
2023-01-31T00:48:44.200Z,3.40
2023-01-31T00:49:16.045Z,3.50
2023-01-31T00:49:47.836Z,3.40
2023-01-31T00:50:20.631Z,3.40
2023-01-31T00:50:52.415Z,3.40
2023-01-31T00:51:26.623Z,3.50
2023-01-31T00:51:58.726Z,3.50
2023-01-31T00:52:31.560Z,3.50
2023-01-31T00:53:03.576Z,3.40
2023-01-31T00:53:35.989Z,3.40
2023-01-31T00:54:08.834Z,3.40
2023-01-31T00:54:40.673Z,3.40
2023-01-31T00:55:13.935Z,3.50
2023-01-31T00:55:46.677Z,3.40
2023-01-31T00:56:20.048Z,3.40
2023-01-31T00:56:51.889Z,3.40
2023-01-31T00:57:24.720Z,3.40
2023-01-31T00:57:56.552Z,3.40
2023-01-31T00:58:28.679Z,3.40
2023-01-31T00:59:00.683Z,3.40
2023-01-31T00:59:33.597Z,3.40
2023-01-31T01:00:06.501Z,3.50
2023-01-31T01:00:38.766Z,3.50
2023-01-31T01:01:12.747Z,3.50
2023-01-31T01:01:45.666Z,3.50
2023-01-31T01:02:17.553Z,3.50
2023-01-31T01:02:49.445Z,3.50
2023-01-31T01:03:22.231Z,3.50
2023-01-31T01:03:54.821Z,3.50
2023-01-31T01:04:26.645Z,3.50
2023-01-31T01:04:59.426Z,3.50
2023-01-31T01:05:31.275Z,3.50
2023-01-31T01:06:03.268Z,3.50
2023-01-31T01:06:36.878Z,3.50
2023-01-31T01:07:08.744Z,3.50
2023-01-31T01:07:40.587Z,3.50
2023-01-31T01:08:13.469Z,3.50
2023-01-31T01:08:45.597Z,3.40
2023-01-31T01:09:17.521Z,3.50
2023-01-31T01:09:52.196Z,3.40
2023-01-31T01:10:25.313Z,3.50
2023-01-31T01:10:57.465Z,3.50
2023-01-31T01:11:31.309Z,3.50
2023-01-31T01:12:04.126Z,3.50
2023-01-31T01:12:36.408Z,3.50
2023-01-31T01:13:08.291Z,3.50
2023-01-31T01:13:40.529Z,3.50
2023-01-31T01:14:13.295Z,3.50
2023-01-31T01:14:45.192Z,3.50
2023-01-31T01:15:17.952Z,3.50
2023-01-31T01:15:51.038Z,3.50
2023-01-31T01:16:24.777Z,3.50
2023-01-31T01:16:58.265Z,3.40
2023-01-31T01:17:31.419Z,3.40
2023-01-31T01:18:03.456Z,3.40
2023-01-31T01:18:35.558Z,3.40
2023-01-31T01:19:12.946Z,3.40
2023-01-31T01:19:44.753Z,3.30
2023-01-31T01:20:17.299Z,3.30
2023-01-31T01:20:50.106Z,3.30
2023-01-31T01:21:24.086Z,3.40
2023-01-31T01:21:56.181Z,3.40
2023-01-31T01:22:28.961Z,3.40
2023-01-31T01:23:00.800Z,3.40
2023-01-31T01:23:33.106Z,3.40
2023-01-31T01:24:07.399Z,3.30
2023-01-31T01:24:39.281Z,3.40
2023-01-31T01:25:11.167Z,3.30
2023-01-31T01:25:46.083Z,3.40
2023-01-31T01:26:22.849Z,3.40
2023-01-31T01:26:54.821Z,3.40
2023-01-31T01:27:27.757Z,3.40
2023-01-31T01:27:59.561Z,3.40
2023-01-31T01:28:34.356Z,3.40
2023-01-31T01:29:07.260Z,3.40
2023-01-31T01:29:39.593Z,3.40
2023-01-31T01:30:12.452Z,3.40
2023-01-31T01:30:44.444Z,3.50
2023-01-31T01:31:18.157Z,3.40
2023-01-31T01:31:50.157Z,3.50
2023-01-31T01:32:22.091Z,3.40
2023-01-31T01:32:55.863Z,3.40
2023-01-31T01:33:27.637Z,3.40
2023-01-31T01:34:02.805Z,3.40
2023-01-31T01:34:37.049Z,3.40
2023-01-31T01:35:09.990Z,3.40
2023-01-31T01:35:41.835Z,3.40
2023-01-31T01:36:17.176Z,3.40
2023-01-31T01:36:49.015Z,3.40
2023-01-31T01:37:20.840Z,3.40
2023-01-31T01:37:53.668Z,3.50
2023-01-31T01:38:25.514Z,3.50
2023-01-31T01:38:57.392Z,3.50
2023-01-31T01:39:30.941Z,3.50
2023-01-31T01:40:03.731Z,3.50
2023-01-31T01:40:36.593Z,3.60
2023-01-31T01:41:11.952Z,3.50
2023-01-31T01:41:44.424Z,3.50
2023-01-31T01:42:17.058Z,3.50
2023-01-31T01:42:49.869Z,3.50
2023-01-31T01:43:21.815Z,3.50
2023-01-31T01:43:55.750Z,3.50
2023-01-31T01:44:50.364Z,3.50
2023-01-31T01:45:22.811Z,3.50
2023-01-31T01:45:54.966Z,3.40
2023-01-31T01:46:31.714Z,3.40
2023-01-31T01:47:03.698Z,3.50
2023-01-31T01:47:39.940Z,3.40
2023-01-31T01:48:18.263Z,3.40
2023-01-31T01:48:54.387Z,3.40
2023-01-31T01:49:31.255Z,3.40
2023-01-31T01:50:10.860Z,3.40
2023-01-31T01:50:47.896Z,3.40
2023-01-31T01:51:21.267Z,3.40
2023-01-31T01:51:58.713Z,3.40
2023-01-31T01:52:33.567Z,3.40
2023-01-31T01:53:10.840Z,3.40
2023-01-31T01:53:46.193Z,3.40
2023-01-31T01:54:22.877Z,3.40
2023-01-31T01:54:56.966Z,3.50
2023-01-31T01:55:35.084Z,3.40
2023-01-31T01:56:14.012Z,3.50
2023-01-31T01:56:51.212Z,3.40
2023-01-31T01:57:31.542Z,3.40
2023-01-31T01:58:08.058Z,3.40
2023-01-31T01:58:44.988Z,3.40
2023-01-31T01:59:22.360Z,3.40
2023-01-31T02:00:01.251Z,3.40
2023-01-31T02:00:35.036Z,3.40
2023-01-31T02:01:09.292Z,3.40
2023-01-31T02:01:41.321Z,3.40
2023-01-31T02:02:13.911Z,3.40
2023-01-31T02:02:48.300Z,3.40
2023-01-31T02:03:20.604Z,3.40
2023-01-31T02:03:53.577Z,3.40
2023-01-31T02:04:30.531Z,3.40
2023-01-31T02:05:02.915Z,3.40
2023-01-31T02:05:39.754Z,3.40
2023-01-31T02:06:13.150Z,3.40
2023-01-31T02:06:45.972Z,3.40
2023-01-31T02:07:17.804Z,3.40
2023-01-31T02:07:50.809Z,3.40
2023-01-31T02:08:25.635Z,3.40
2023-01-31T02:08:58.911Z,3.40
2023-01-31T02:09:40.181Z,3.40
2023-01-31T02:10:17.514Z,3.40
2023-01-31T02:11:02.467Z,3.30
2023-01-31T02:11:35.935Z,3.40
2023-01-31T02:12:08.700Z,3.30
2023-01-31T02:12:40.969Z,3.40
2023-01-31T02:13:15.336Z,3.40
2023-01-31T02:13:49.632Z,3.30
2023-01-31T02:14:21.849Z,3.40
2023-01-31T02:14:55.023Z,3.30
2023-01-31T02:15:27.084Z,3.30
2023-01-31T02:16:00.179Z,3.40
2023-01-31T02:16:32.262Z,3.40
2023-01-31T02:17:04.250Z,3.40
2023-01-31T02:17:37.183Z,3.40
2023-01-31T02:18:09.683Z,3.40
2023-01-31T02:18:42.037Z,3.40
2023-01-31T02:19:24.243Z,3.40
2023-01-31T02:20:10.334Z,3.40
2023-01-31T02:21:07.248Z,3.40
2023-01-31T02:22:10.964Z,3.30
2023-01-31T02:22:48.932Z,3.40
2023-01-31T02:23:42.743Z,3.40
2023-01-31T02:24:53.054Z,3.40
2023-01-31T02:25:48.742Z,3.40
2023-01-31T02:26:50.511Z,3.40
2023-01-31T02:27:48.767Z,3.30
2023-01-31T02:28:48.550Z,3.30
2023-01-31T02:29:53.870Z,3.30
2023-01-31T02:30:50.864Z,3.30
2023-01-31T02:31:58.258Z,3.30
2023-01-31T02:32:49.783Z,3.20
2023-01-31T02:33:27.196Z,3.30
2023-01-31T02:34:10.447Z,3.20
2023-01-31T02:34:51.169Z,3.20
2023-01-31T02:35:35.629Z,3.20
2023-01-31T02:36:19.687Z,3.20
2023-01-31T02:37:02.940Z,3.20
2023-01-31T02:37:44.079Z,3.20
2023-01-31T02:38:30.089Z,3.20
2023-01-31T02:39:10.193Z,3.20
2023-01-31T02:39:51.573Z,3.20
2023-01-31T02:40:30.182Z,3.10
2023-01-31T02:41:10.007Z,3.20
2023-01-31T02:41:50.394Z,3.20
2023-01-31T02:42:29.547Z,3.20
2023-01-31T02:43:11.325Z,3.20
2023-01-31T02:44:23.514Z,3.20
2023-01-31T02:45:01.122Z,3.10
2023-01-31T02:45:42.405Z,3.30
2023-01-31T02:46:16.844Z,3.30
2023-01-31T02:46:55.199Z,3.30
2023-01-31T02:47:38.884Z,3.30
2023-01-31T02:48:20.397Z,3.20
2023-01-31T02:48:55.979Z,3.20
2023-01-31T02:49:34.578Z,3.20
2023-01-31T02:50:14.290Z,3.20
2023-01-31T02:50:54.347Z,3.20
2023-01-31T02:51:31.527Z,3.20
2023-01-31T02:52:17.604Z,3.20
2023-01-31T02:52:53.189Z,3.20
2023-01-31T02:53:30.862Z,3.10
2023-01-31T02:54:09.278Z,3.10
2023-01-31T02:54:56.107Z,3.10
2023-01-31T02:55:51.244Z,3.10
2023-01-31T02:56:26.108Z,3.20
2023-01-31T02:56:57.979Z,3.20
2023-01-31T02:57:30.057Z,3.20
2023-01-31T02:58:06.417Z,3.20
2023-01-31T02:58:39.952Z,3.20
2023-01-31T02:59:15.832Z,3.20
2023-01-31T02:59:48.421Z,3.20
2023-01-31T03:00:23.174Z,3.20
2023-01-31T03:00:58.013Z,3.20
2023-01-31T03:01:33.991Z,3.20
2023-01-31T03:02:06.490Z,3.30
2023-01-31T03:02:38.512Z,3.20
2023-01-31T03:03:21.705Z,3.20
2023-01-31T03:03:54.613Z,3.20
2023-01-31T03:04:31.000Z,3.20
2023-01-31T03:05:03.402Z,3.20
2023-01-31T03:05:36.534Z,3.20
2023-01-31T03:06:54.323Z,3.20
2023-01-31T03:07:31.388Z,3.20
2023-01-31T03:08:05.296Z,3.20
2023-01-31T03:08:38.714Z,3.20
2023-01-31T03:09:22.245Z,3.20
2023-01-31T03:10:02.529Z,3.20
2023-01-31T03:10:57.312Z,3.10
2023-01-31T03:11:36.498Z,3.10
2023-01-31T03:12:36.416Z,3.10
2023-01-31T03:13:25.411Z,3.20
2023-01-31T03:14:08.267Z,3.20
2023-01-31T03:14:46.906Z,3.20
2023-01-31T03:15:56.557Z,3.20
2023-01-31T03:16:50.549Z,3.20
2023-01-31T03:17:33.488Z,3.20
2023-01-31T03:18:11.347Z,3.20
2023-01-31T03:18:52.081Z,3.20
2023-01-31T03:19:30.652Z,3.10
2023-01-31T03:20:08.375Z,3.10
2023-01-31T03:20:44.564Z,3.20
2023-01-31T03:21:21.419Z,3.20
2023-01-31T03:21:58.019Z,3.00
2023-01-31T03:22:35.053Z,3.10
2023-01-31T03:23:12.174Z,3.10
2023-01-31T03:23:48.313Z,3.10
2023-01-31T03:24:26.208Z,3.10
2023-01-31T03:25:00.348Z,3.10
2023-01-31T03:25:37.204Z,3.10
2023-01-31T03:26:11.070Z,3.10
2023-01-31T03:26:43.658Z,3.20
2023-01-31T03:27:16.706Z,3.10
2023-01-31T03:27:55.440Z,3.10
2023-01-31T03:28:31.370Z,3.10
2023-01-31T03:29:05.728Z,3.20
2023-01-31T03:29:40.538Z,3.20
2023-01-31T03:30:16.515Z,3.20
2023-01-31T03:30:54.245Z,3.20
2023-01-31T03:31:33.508Z,3.20
2023-01-31T03:32:11.851Z,3.20
2023-01-31T03:32:47.370Z,3.20
2023-01-31T03:33:25.342Z,3.20
2023-01-31T03:34:03.373Z,3.20
2023-01-31T03:34:36.973Z,3.20
2023-01-31T03:35:09.804Z,3.20
2023-01-31T03:35:46.299Z,3.20
2023-01-31T03:36:27.479Z,3.20
2023-01-31T03:37:06.489Z,3.20
2023-01-31T03:37:44.554Z,3.20
2023-01-31T03:38:21.972Z,3.20
2023-01-31T03:39:01.675Z,3.20
2023-01-31T03:39:41.234Z,3.20
2023-01-31T03:40:19.424Z,3.20
2023-01-31T03:40:57.062Z,3.20
2023-01-31T03:41:35.948Z,3.20
2023-01-31T03:42:10.831Z,3.20
2023-01-31T03:42:51.283Z,3.20
2023-01-31T03:43:28.529Z,3.20
2023-01-31T03:44:06.165Z,3.20
2023-01-31T03:44:45.022Z,3.20
2023-01-31T03:45:23.310Z,3.20
2023-01-31T03:46:00.461Z,3.20
2023-01-31T03:46:38.230Z,3.20
2023-01-31T03:47:14.749Z,3.20
2023-01-31T03:47:50.802Z,3.20
2023-01-31T03:48:26.724Z,3.20
2023-01-31T03:49:03.897Z,3.20
2023-01-31T03:49:38.896Z,3.20
2023-01-31T03:50:16.455Z,3.20
2023-01-31T03:50:52.804Z,3.20
2023-01-31T03:51:29.924Z,3.20
2023-01-31T03:52:07.068Z,3.20
2023-01-31T03:52:44.622Z,3.10
2023-01-31T03:53:22.554Z,3.10
2023-01-31T03:53:58.243Z,3.10
2023-01-31T03:54:34.741Z,3.00
2023-01-31T03:55:13.515Z,3.10
2023-01-31T03:55:52.114Z,3.00
2023-01-31T03:56:29.110Z,3.00
2023-01-31T03:57:04.716Z,3.00
2023-01-31T03:57:42.372Z,3.00
2023-01-31T03:58:17.306Z,3.00
2023-01-31T03:58:53.773Z,3.00
2023-01-31T03:59:30.499Z,3.00
2023-01-31T04:00:07.304Z,3.00
2023-01-31T04:00:42.797Z,3.00
2023-01-31T04:01:17.275Z,3.00
2023-01-31T04:01:53.558Z,3.00
2023-01-31T04:02:30.990Z,3.00
2023-01-31T04:03:09.991Z,3.00
2023-01-31T04:03:45.674Z,2.90
2023-01-31T04:04:23.355Z,2.90
2023-01-31T04:04:59.598Z,2.90
2023-01-31T04:05:32.577Z,2.90
2023-01-31T04:06:04.895Z,2.90
2023-01-31T04:06:37.120Z,2.90
2023-01-31T04:07:10.435Z,2.90
2023-01-31T04:07:42.571Z,2.90
2023-01-31T04:08:14.461Z,2.90
2023-01-31T04:08:47.357Z,2.90
2023-01-31T04:09:21.579Z,2.90
2023-01-31T04:09:55.233Z,2.90
2023-01-31T04:10:28.148Z,2.90
2023-01-31T04:11:03.694Z,2.90
2023-01-31T04:11:37.854Z,2.90
2023-01-31T04:12:14.157Z,2.90
2023-01-31T04:12:46.520Z,2.90
2023-01-31T04:13:18.451Z,2.90
2023-01-31T04:13:50.386Z,2.90
2023-01-31T04:14:23.224Z,2.90
2023-01-31T04:14:55.121Z,2.90
2023-01-31T04:15:26.988Z,2.90
2023-01-31T04:15:59.812Z,2.90
2023-01-31T04:16:32.162Z,2.90
2023-01-31T04:17:04.007Z,2.90
2023-01-31T04:17:35.799Z,2.90
2023-01-31T04:18:08.684Z,2.90
2023-01-31T04:18:40.508Z,2.90
2023-01-31T04:19:12.301Z,2.90
2023-01-31T04:19:46.457Z,2.90
2023-01-31T04:20:18.716Z,2.90
2023-01-31T04:20:50.521Z,2.90
2023-01-31T04:21:23.394Z,2.90
2023-01-31T04:21:55.174Z,2.90
2023-01-31T04:22:27.070Z,2.90
2023-01-31T04:23:00.234Z,2.90
2023-01-31T04:23:32.245Z,2.90
2023-01-31T04:24:04.342Z,2.90
2023-01-31T04:24:37.741Z,2.80
2023-01-31T04:25:10.287Z,2.80
2023-01-31T04:25:42.127Z,2.80
2023-01-31T04:26:15.072Z,2.80
2023-01-31T04:26:46.940Z,2.90
2023-01-31T04:27:19.758Z,2.90
2023-01-31T04:27:51.588Z,2.90
2023-01-31T04:28:23.501Z,2.90
2023-01-31T04:28:56.264Z,2.90
2023-01-31T04:29:28.077Z,2.80
2023-01-31T04:29:59.938Z,2.80
2023-01-31T04:30:33.266Z,2.90
2023-01-31T04:31:05.359Z,2.80
2023-01-31T04:31:37.793Z,2.80
2023-01-31T04:32:10.840Z,2.80
2023-01-31T04:32:42.651Z,2.80
2023-01-31T04:33:14.441Z,2.80
2023-01-31T04:33:47.257Z,2.80
2023-01-31T04:34:19.112Z,2.80
2023-01-31T04:34:52.279Z,2.80
2023-01-31T04:35:25.113Z,2.80
2023-01-31T04:35:56.984Z,2.80
2023-01-31T04:36:28.994Z,2.80
2023-01-31T04:37:01.994Z,2.80
2023-01-31T04:37:34.023Z,2.90
2023-01-31T04:38:06.914Z,2.90
2023-01-31T04:38:38.906Z,2.90
2023-01-31T04:39:11.255Z,2.80
2023-01-31T04:39:44.046Z,2.80
2023-01-31T04:40:15.940Z,2.90
2023-01-31T04:40:48.144Z,2.80
2023-01-31T04:41:20.933Z,2.80
2023-01-31T04:41:52.837Z,2.80
2023-01-31T04:42:25.693Z,2.80
2023-01-31T04:42:57.509Z,2.80
2023-01-31T04:43:29.369Z,2.80
2023-01-31T04:44:02.152Z,2.80
2023-01-31T04:44:34.028Z,2.80
2023-01-31T04:45:06.728Z,2.90
2023-01-31T04:45:39.544Z,2.80
2023-01-31T04:46:11.376Z,2.80
2023-01-31T04:46:45.162Z,2.80
2023-01-31T04:47:17.201Z,2.80
2023-01-31T04:47:49.115Z,2.90
2023-01-31T04:48:22.081Z,2.80
2023-01-31T04:48:53.937Z,2.80
2023-01-31T04:49:27.000Z,2.80
2023-01-31T04:50:01.219Z,2.80
2023-01-31T04:50:33.181Z,2.80
2023-01-31T04:51:05.298Z,2.80
2023-01-31T04:51:38.109Z,2.80
2023-01-31T04:52:10.512Z,2.70
2023-01-31T04:52:42.355Z,2.80
2023-01-31T04:53:15.493Z,2.80
2023-01-31T04:53:47.348Z,2.80
2023-01-31T04:54:19.134Z,2.70
2023-01-31T04:54:52.043Z,2.70
2023-01-31T04:55:23.977Z,2.70
2023-01-31T04:55:55.865Z,2.70
2023-01-31T04:56:28.646Z,2.70
2023-01-31T04:57:00.463Z,2.70
2023-01-31T04:57:32.750Z,2.70
2023-01-31T04:58:07.470Z,2.70
2023-01-31T04:58:41.386Z,2.80
2023-01-31T04:59:14.172Z,2.80
2023-01-31T04:59:46.041Z,2.80
2023-01-31T05:00:19.347Z,2.80
2023-01-31T05:00:54.219Z,2.70
2023-01-31T05:01:26.359Z,2.70
2023-01-31T05:01:58.357Z,2.70
2023-01-31T05:02:31.914Z,2.70
2023-01-31T05:03:04.964Z,2.70
2023-01-31T05:03:36.838Z,2.70
2023-01-31T05:04:08.918Z,2.70
2023-01-31T05:04:41.698Z,2.80
2023-01-31T05:05:14.903Z,2.80
2023-01-31T05:05:48.450Z,2.70
2023-01-31T05:06:21.217Z,2.70
2023-01-31T05:06:53.234Z,2.70
2023-01-31T05:07:25.051Z,2.70
2023-01-31T05:07:57.959Z,2.70
2023-01-31T05:08:29.833Z,2.80
2023-01-31T05:09:01.904Z,2.70
2023-01-31T05:09:34.716Z,2.80
2023-01-31T05:10:07.708Z,2.80
2023-01-31T05:10:39.910Z,2.80
2023-01-31T05:11:12.750Z,2.80
2023-01-31T05:11:45.035Z,2.80
2023-01-31T05:12:16.844Z,2.80
2023-01-31T05:12:49.661Z,2.80
2023-01-31T05:13:21.464Z,2.90
2023-01-31T05:13:53.419Z,2.80
2023-01-31T05:14:26.896Z,2.80
2023-01-31T05:14:58.722Z,2.80
2023-01-31T05:15:32.564Z,2.80
2023-01-31T05:16:07.871Z,2.70
2023-01-31T05:16:39.780Z,2.80
2023-01-31T05:17:11.901Z,2.80
2023-01-31T05:17:44.990Z,2.80
2023-01-31T05:18:16.805Z,2.80
2023-01-31T05:18:50.778Z,2.80
2023-01-31T05:19:22.583Z,2.80
2023-01-31T05:19:54.383Z,2.80
2023-01-31T05:20:27.637Z,2.80
2023-01-31T05:21:00.406Z,2.80
2023-01-31T05:21:52.931Z,2.80
2023-01-31T05:22:25.968Z,2.70
2023-01-31T05:22:58.186Z,2.80
2023-01-31T05:23:30.713Z,2.80
2023-01-31T05:24:04.799Z,2.80
2023-01-31T05:24:36.802Z,2.80
2023-01-31T05:25:09.094Z,2.80
2023-01-31T05:25:41.867Z,2.80
2023-01-31T05:26:13.739Z,2.80
2023-01-31T05:26:45.708Z,2.80
2023-01-31T05:27:19.482Z,2.80
2023-01-31T05:27:51.667Z,2.80
2023-01-31T05:28:25.426Z,2.80
2023-01-31T05:29:00.462Z,2.80
2023-01-31T05:29:33.607Z,2.80
2023-01-31T05:30:07.320Z,2.90
2023-01-31T05:30:40.364Z,2.90
2023-01-31T05:31:13.577Z,2.90
2023-01-31T05:31:45.789Z,2.90
2023-01-31T05:32:19.524Z,2.80
2023-01-31T05:32:51.447Z,2.80
2023-01-31T05:33:23.320Z,2.80
2023-01-31T05:33:56.150Z,2.80
2023-01-31T05:34:30.395Z,2.80
2023-01-31T05:35:02.831Z,2.70
2023-01-31T05:35:38.641Z,2.70
2023-01-31T05:36:10.500Z,2.70
2023-01-31T05:36:42.557Z,2.70
2023-01-31T05:37:15.355Z,2.80
2023-01-31T05:37:47.339Z,2.80
2023-01-31T05:38:20.171Z,2.80
2023-01-31T05:38:52.007Z,2.70
2023-01-31T05:39:23.907Z,2.70
2023-01-31T05:39:57.082Z,2.80
2023-01-31T05:40:28.969Z,2.80
2023-01-31T05:41:01.962Z,2.80
2023-01-31T05:41:33.845Z,2.80
2023-01-31T05:42:05.777Z,2.80
2023-01-31T05:42:38.531Z,2.80
2023-01-31T05:43:10.387Z,2.80
2023-01-31T05:43:42.207Z,2.80
2023-01-31T05:44:16.228Z,2.80
2023-01-31T05:44:48.210Z,2.70
2023-01-31T05:45:20.299Z,2.70
2023-01-31T05:45:53.358Z,2.70
2023-01-31T05:46:25.352Z,2.70
2023-01-31T05:46:57.309Z,2.70
2023-01-31T05:47:30.117Z,2.70
2023-01-31T05:48:02.424Z,2.70
2023-01-31T05:48:34.457Z,2.70
2023-01-31T05:49:07.331Z,2.70
2023-01-31T05:49:39.531Z,2.70
2023-01-31T05:50:12.108Z,2.70
2023-01-31T05:50:46.210Z,2.70
2023-01-31T05:51:18.035Z,2.80
2023-01-31T05:51:49.853Z,2.80
2023-01-31T05:52:21.779Z,2.70
2023-01-31T05:52:56.689Z,2.70
2023-01-31T05:53:28.505Z,2.70
2023-01-31T05:54:00.535Z,2.70
2023-01-31T05:54:34.472Z,2.80
2023-01-31T05:55:07.206Z,2.70
2023-01-31T05:55:39.105Z,2.70
2023-01-31T05:56:11.903Z,2.70
2023-01-31T05:56:43.748Z,2.70
2023-01-31T05:57:15.848Z,2.70
2023-01-31T05:57:49.025Z,2.70
2023-01-31T05:58:20.911Z,2.70
2023-01-31T05:58:52.765Z,2.70
2023-01-31T05:59:26.322Z,2.80
2023-01-31T05:59:58.221Z,2.70
2023-01-31T06:00:30.065Z,2.80
2023-01-31T06:01:02.862Z,2.80
2023-01-31T06:01:34.641Z,2.80
2023-01-31T06:02:06.545Z,2.80
2023-01-31T06:02:39.435Z,2.80
2023-01-31T06:03:11.411Z,2.80
2023-01-31T06:03:43.289Z,2.80
2023-01-31T06:04:16.139Z,2.70
2023-01-31T06:04:49.250Z,2.80
2023-01-31T06:05:21.327Z,2.80
2023-01-31T06:05:55.882Z,2.80
2023-01-31T06:06:27.681Z,2.80
2023-01-31T06:06:59.572Z,2.80
2023-01-31T06:07:32.370Z,2.80
2023-01-31T06:08:04.263Z,2.80
2023-01-31T06:08:37.024Z,2.70
2023-01-31T06:09:09.181Z,2.70
2023-01-31T06:09:41.845Z,2.70
2023-01-31T06:10:15.421Z,2.70
2023-01-31T06:10:47.206Z,2.70
2023-01-31T06:11:19.010Z,2.70
2023-01-31T06:11:51.784Z,2.80
2023-01-31T06:12:23.650Z,2.70
2023-01-31T06:12:55.476Z,2.70
2023-01-31T06:13:28.244Z,2.70
2023-01-31T06:14:00.703Z,2.70
2023-01-31T06:14:33.231Z,2.70
2023-01-31T06:15:06.927Z,2.70
2023-01-31T06:15:43.129Z,2.70
2023-01-31T06:16:15.004Z,2.80
2023-01-31T06:16:47.792Z,2.80
2023-01-31T06:17:19.614Z,2.80
2023-01-31T06:17:52.435Z,2.80
2023-01-31T06:18:24.939Z,2.70
2023-01-31T06:18:57.826Z,2.70
2023-01-31T06:19:29.749Z,2.70
2023-01-31T06:20:01.686Z,2.70
2023-01-31T06:20:34.483Z,2.70
2023-01-31T06:21:07.789Z,2.70
2023-01-31T06:21:39.603Z,2.70
2023-01-31T06:22:12.482Z,2.70
2023-01-31T06:22:44.305Z,2.70
2023-01-31T06:23:16.187Z,2.70
2023-01-31T06:23:48.942Z,2.70
2023-01-31T06:24:21.103Z,2.80
2023-01-31T06:24:53.023Z,2.70
2023-01-31T06:25:25.999Z,2.70
2023-01-31T06:25:58.354Z,2.70
2023-01-31T06:26:30.688Z,2.70
2023-01-31T06:27:03.560Z,2.70
2023-01-31T06:27:36.598Z,2.70
2023-01-31T06:28:09.453Z,2.80
2023-01-31T06:28:41.270Z,2.80
2023-01-31T06:29:13.131Z,2.70
2023-01-31T06:29:45.997Z,2.70
2023-01-31T06:30:18.111Z,2.60
2023-01-31T06:30:50.424Z,2.60
2023-01-31T06:31:23.369Z,2.60
2023-01-31T06:31:55.248Z,2.60
2023-01-31T06:32:27.076Z,2.60
2023-01-31T06:33:01.070Z,2.60
2023-01-31T06:33:45.460Z,2.60
2023-01-31T06:34:19.524Z,2.60
2023-01-31T06:34:51.319Z,2.60
2023-01-31T06:35:23.231Z,2.60
2023-01-31T06:36:00.406Z,2.60
2023-01-31T06:36:34.068Z,2.60
2023-01-31T06:37:08.816Z,2.60
2023-01-31T06:37:41.862Z,2.60
2023-01-31T06:38:13.759Z,2.60
2023-01-31T06:38:49.587Z,2.60
2023-01-31T06:39:22.379Z,2.70
2023-01-31T06:39:54.194Z,2.70
2023-01-31T06:40:26.178Z,2.70
2023-01-31T06:40:59.100Z,2.70
2023-01-31T06:41:31.593Z,2.70
2023-01-31T06:42:03.857Z,2.70
2023-01-31T06:42:36.629Z,2.70
2023-01-31T06:43:08.461Z,2.70
2023-01-31T06:43:40.345Z,2.80
2023-01-31T06:44:13.245Z,2.80
2023-01-31T06:44:45.162Z,2.80
2023-01-31T06:45:17.161Z,2.80
2023-01-31T06:45:50.310Z,2.80
2023-01-31T06:46:22.425Z,2.80
2023-01-31T06:46:54.783Z,2.80
2023-01-31T06:47:27.581Z,2.80
2023-01-31T06:47:59.383Z,2.80
2023-01-31T06:48:31.701Z,2.80
2023-01-31T06:49:04.787Z,2.80
2023-01-31T06:49:36.604Z,2.80
2023-01-31T06:50:10.661Z,2.80
2023-01-31T06:50:43.028Z,2.80
2023-01-31T06:51:16.411Z,2.80
2023-01-31T06:51:50.574Z,2.80
2023-01-31T06:52:22.444Z,2.90
2023-01-31T06:52:54.435Z,2.90
2023-01-31T06:53:27.219Z,2.90
2023-01-31T06:53:59.271Z,2.90
2023-01-31T06:54:31.558Z,2.90
2023-01-31T06:55:04.743Z,2.90
2023-01-31T06:55:36.619Z,2.90
2023-01-31T06:56:08.648Z,2.90
2023-01-31T06:56:41.416Z,2.90
2023-01-31T06:57:13.229Z,2.90
2023-01-31T06:57:48.293Z,2.90
2023-01-31T06:58:21.121Z,2.90
2023-01-31T06:58:53.575Z,2.80
2023-01-31T06:59:25.526Z,2.80
2023-01-31T06:59:58.318Z,2.80
2023-01-31T07:00:30.617Z,2.80
2023-01-31T07:01:05.692Z,2.80
2023-01-31T07:01:38.549Z,2.70
2023-01-31T07:02:11.214Z,2.80
2023-01-31T07:02:42.979Z,2.80
2023-01-31T07:03:15.777Z,2.70
2023-01-31T07:03:48.662Z,2.70
2023-01-31T07:04:20.477Z,2.70
2023-01-31T07:04:53.465Z,2.70
2023-01-31T07:05:25.774Z,2.70
2023-01-31T07:05:58.570Z,2.70
2023-01-31T07:06:30.515Z,2.70
2023-01-31T07:07:04.965Z,2.70
2023-01-31T07:07:36.775Z,2.70
2023-01-31T07:08:08.608Z,2.70
2023-01-31T07:08:41.403Z,2.70
2023-01-31T07:09:13.359Z,2.70
2023-01-31T07:09:46.272Z,2.70
2023-01-31T07:10:18.336Z,2.70
2023-01-31T07:10:50.406Z,2.70
2023-01-31T07:11:23.318Z,2.70
2023-01-31T07:11:55.241Z,2.70
2023-01-31T07:12:27.062Z,2.70
2023-01-31T07:13:01.363Z,2.70
2023-01-31T07:13:33.613Z,2.70
2023-01-31T07:14:06.619Z,2.70
2023-01-31T07:14:38.412Z,2.70
2023-01-31T07:15:12.242Z,2.70
2023-01-31T07:15:44.139Z,2.70
2023-01-31T07:16:18.195Z,2.70
2023-01-31T07:16:50.025Z,2.70
2023-01-31T07:17:22.290Z,2.80
2023-01-31T07:17:59.098Z,2.70
2023-01-31T07:18:31.302Z,2.70
2023-01-31T07:19:04.246Z,2.70
2023-01-31T07:19:36.037Z,2.70
2023-01-31T07:20:09.197Z,2.70
2023-01-31T07:20:42.264Z,2.60
2023-01-31T07:21:14.206Z,2.60
2023-01-31T07:21:47.158Z,2.60
2023-01-31T07:22:21.353Z,2.60
2023-01-31T07:22:57.068Z,2.70
2023-01-31T07:23:30.117Z,2.70
2023-01-31T07:24:02.152Z,2.70
2023-01-31T07:24:34.019Z,2.70
2023-01-31T07:25:07.613Z,2.60
2023-01-31T07:25:39.443Z,2.60
2023-01-31T07:26:12.327Z,2.60
2023-01-31T07:26:44.485Z,2.60
2023-01-31T07:27:16.442Z,2.60
2023-01-31T07:27:49.254Z,2.70
2023-01-31T07:28:21.206Z,2.70
2023-01-31T07:28:53.114Z,2.60
2023-01-31T07:29:26.064Z,2.60
2023-01-31T07:29:57.924Z,2.60
2023-01-31T07:30:33.237Z,2.60
2023-01-31T07:31:06.805Z,2.60
2023-01-31T07:31:39.030Z,2.60
2023-01-31T07:32:11.125Z,2.60
2023-01-31T07:32:43.933Z,2.60
2023-01-31T07:33:15.767Z,2.60
2023-01-31T07:33:47.767Z,2.70
2023-01-31T07:34:22.844Z,2.70
2023-01-31T07:34:54.667Z,2.70
2023-01-31T07:35:26.636Z,2.70
2023-01-31T07:35:59.495Z,2.70
2023-01-31T07:36:32.372Z,2.70
2023-01-31T07:37:04.250Z,2.60
2023-01-31T07:37:39.320Z,2.70
2023-01-31T07:38:11.544Z,2.60
2023-01-31T07:38:43.583Z,2.70
2023-01-31T07:39:16.466Z,2.60